createdAt,value
2022-10-16T00:00:29.760Z,100733.91
2022-10-16T00:02:31.687Z,100731.38
2022-10-16T00:04:33.618Z,100733.06
2022-10-16T00:06:35.580Z,100731.84
2022-10-16T00:08:38.755Z,100730.66
2022-10-16T00:10:42.033Z,100726.09
2022-10-16T00:12:45.922Z,100731.28
2022-10-16T00:14:47.783Z,100724.03
2022-10-16T00:16:49.671Z,100726.94
2022-10-16T00:18:52.461Z,100725.44
2022-10-16T00:23:01.308Z,100727.31
2022-10-16T00:25:03.179Z,100731.38
2022-10-16T00:27:05.042Z,100729.06
2022-10-16T00:29:07.690Z,100730.47
2022-10-16T00:31:12.656Z,100728.41
2022-10-16T00:33:14.556Z,100720.97
2022-10-16T00:35:16.434Z,100732.31
2022-10-16T00:37:18.248Z,100739.19
2022-10-16T00:39:21.203Z,100747.66
2022-10-16T00:41:25.064Z,100749.97
2022-10-16T00:43:52.201Z,100734.81
2022-10-16T00:45:54.199Z,100740.66
2022-10-16T00:47:57.914Z,100738.44
2022-10-16T00:50:07.738Z,100738.63
2022-10-16T00:52:11.200Z,100754.03
2022-10-16T00:54:20.578Z,100730.81
2022-10-16T00:56:22.448Z,100731.84
2022-10-16T00:58:25.801Z,100727.38
2022-10-16T01:00:28.137Z,100725.50
2022-10-16T01:02:29.975Z,100732.66
2022-10-16T01:04:49.136Z,100736.84
2022-10-16T01:07:25.646Z,100735.16
2022-10-16T01:09:45.456Z,100743.38
2022-10-16T01:12:11.776Z,100737.59
2022-10-16T01:14:38.365Z,100737.41
2022-10-16T01:17:03.943Z,100744.47
2022-10-16T01:19:05.712Z,100744.59
2022-10-16T01:21:11.064Z,100756.13
2022-10-16T01:23:36.482Z,100752.97
2022-10-16T01:25:59.117Z,100759.84
2022-10-16T01:28:10.558Z,100769.31
2022-10-16T01:30:15.281Z,100768.59
2022-10-16T01:32:28.899Z,100770.63
2022-10-16T01:34:39.924Z,100772.38
2022-10-16T01:36:49.472Z,100766.47
2022-10-16T01:38:55.850Z,100768.50
2022-10-16T01:41:05.876Z,100770.75
2022-10-16T01:43:15.398Z,100762.16
2022-10-16T01:45:23.459Z,100761.78
2022-10-16T01:47:28.251Z,100766.53
2022-10-16T01:49:35.127Z,100761.34
2022-10-16T01:51:38.307Z,100762.81
2022-10-16T01:53:45.186Z,100757.63
2022-10-16T01:55:49.876Z,100749.16
2022-10-16T01:57:54.860Z,100750.34
2022-10-16T02:00:02.054Z,100753.69
2022-10-16T02:02:09.093Z,100759.84
2022-10-16T02:04:43.803Z,100758.63
2022-10-16T02:06:45.816Z,100763.00
2022-10-16T02:08:48.089Z,100762.34
2022-10-16T02:10:49.916Z,100761.25
2022-10-16T02:13:24.113Z,100752.13
2022-10-16T02:15:28.123Z,100756.88
2022-10-16T02:17:34.237Z,100752.13
2022-10-16T02:19:36.131Z,100751.00
2022-10-16T02:21:59.217Z,100751.84
2022-10-16T02:24:13.207Z,100749.69
2022-10-16T02:26:25.938Z,100752.41
2022-10-16T02:28:38.876Z,100749.44
2022-10-16T02:30:49.314Z,100757.53
2022-10-16T02:32:53.764Z,100757.78
2022-10-16T02:34:56.603Z,100754.63
2022-10-16T02:36:59.878Z,100759.81
2022-10-16T02:39:02.698Z,100766.44
2022-10-16T02:41:07.350Z,100762.06
2022-10-16T02:43:10.200Z,100769.00
2022-10-16T02:45:12.730Z,100772.03
2022-10-16T02:47:14.732Z,100761.91
2022-10-16T02:49:16.735Z,100764.19
2022-10-16T02:51:18.648Z,100766.78
2022-10-16T02:53:20.504Z,100770.81
2022-10-16T02:55:22.407Z,100772.69
2022-10-16T02:57:25.628Z,100777.41
2022-10-16T02:59:27.800Z,100776.75
2022-10-16T03:01:29.745Z,100775.25
2022-10-16T03:03:31.625Z,100781.31
2022-10-16T03:05:33.445Z,100781.78
2022-10-16T03:07:35.345Z,100785.84
2022-10-16T03:09:38.287Z,100787.00
2022-10-16T03:11:40.196Z,100786.19
2022-10-16T03:13:48.899Z,100786.03
2022-10-16T03:15:51.859Z,100781.13
2022-10-16T03:17:53.665Z,100781.66
2022-10-16T03:19:57.515Z,100782.69
2022-10-16T03:22:00.336Z,100793.00
2022-10-16T03:24:03.256Z,100798.19
2022-10-16T03:26:05.176Z,100800.78
2022-10-16T03:28:07.164Z,100795.94
2022-10-16T03:30:09.963Z,100798.94
2022-10-16T03:32:11.923Z,100798.94
2022-10-16T03:34:13.762Z,100803.66
2022-10-16T03:36:17.581Z,100800.50
2022-10-16T03:38:19.363Z,100798.72
2022-10-16T03:40:22.203Z,100804.19
2022-10-16T03:42:24.025Z,100807.25
2022-10-16T03:44:25.895Z,100814.91
2022-10-16T03:46:28.270Z,100817.97
2022-10-16T03:48:31.141Z,100811.44
2022-10-16T03:50:33.088Z,100801.22
2022-10-16T03:52:34.976Z,100809.91
2022-10-16T03:54:36.887Z,100806.06
2022-10-16T03:56:38.889Z,100811.06
2022-10-16T03:58:40.802Z,100808.78
2022-10-16T04:00:44.070Z,100813.53
2022-10-16T04:04:49.680Z,100817.06
2022-10-16T04:06:52.793Z,100817.84
2022-10-16T04:08:57.382Z,100812.28
2022-10-16T04:10:59.202Z,100811.91
2022-10-16T04:13:00.985Z,100813.84
2022-10-16T04:15:03.027Z,100807.63
2022-10-16T04:17:06.023Z,100818.06
2022-10-16T04:19:08.892Z,100825.50
2022-10-16T04:21:10.863Z,100839.22
2022-10-16T04:23:13.642Z,100827.97
2022-10-16T04:25:15.557Z,100833.50
2022-10-16T04:27:23.463Z,100830.38
2022-10-16T04:29:25.636Z,100835.44
2022-10-16T04:31:30.440Z,100833.47
2022-10-16T04:33:32.300Z,100836.56
2022-10-16T04:35:34.151Z,100840.31
2022-10-16T04:37:36.065Z,100835.94
2022-10-16T04:39:37.961Z,100838.78
2022-10-16T04:41:40.904Z,100829.03
2022-10-16T04:43:43.707Z,100833.59
2022-10-16T04:45:47.608Z,100836.13
2022-10-16T04:47:50.502Z,100842.34
2022-10-16T04:49:52.318Z,100840.88
2022-10-16T04:51:55.284Z,100847.78
2022-10-16T04:53:57.340Z,100839.72
2022-10-16T04:55:59.212Z,100836.72
2022-10-16T04:58:02.132Z,100843.94
2022-10-16T05:00:04.858Z,100849.63
2022-10-16T05:02:07.026Z,100854.88
2022-10-16T05:04:09.175Z,100856.56
2022-10-16T05:06:11.146Z,100859.94
2022-10-16T05:08:15.660Z,100859.75
2022-10-16T05:10:18.396Z,100868.16
2022-10-16T05:12:20.295Z,100873.50
2022-10-16T05:14:23.186Z,100869.84
2022-10-16T05:16:25.018Z,100872.53
2022-10-16T05:18:26.945Z,100871.66
2022-10-16T05:20:29.950Z,100868.34
2022-10-16T05:22:31.862Z,100864.31
2022-10-16T05:24:35.805Z,100861.09
2022-10-16T05:26:37.652Z,100860.91
2022-10-16T05:28:39.586Z,100860.59
2022-10-16T05:30:41.510Z,100856.06
2022-10-16T05:32:43.402Z,100860.91
2022-10-16T05:34:45.779Z,100859.09
2022-10-16T05:36:47.776Z,100860.28
2022-10-16T05:38:51.873Z,100865.47
2022-10-16T05:40:54.786Z,100866.97
2022-10-16T05:42:57.788Z,100868.47
2022-10-16T05:44:59.769Z,100872.50
2022-10-16T05:47:01.861Z,100868.59
2022-10-16T05:49:04.160Z,100878.66
2022-10-16T05:51:08.525Z,100879.84
2022-10-16T05:53:10.548Z,100882.69
2022-10-16T05:55:12.498Z,100879.16
2022-10-16T05:57:14.503Z,100875.44
2022-10-16T05:59:16.573Z,100877.94
2022-10-16T06:01:20.269Z,100883.59
2022-10-16T06:03:47.883Z,100888.47
2022-10-16T06:06:22.154Z,100890.41
2022-10-16T06:15:38.143Z,100898.44
2022-10-16T06:18:03.458Z,100891.84
2022-10-16T06:20:09.996Z,100899.50
2022-10-16T06:22:11.920Z,100898.56
2022-10-16T06:24:40.989Z,100899.59
2022-10-16T06:26:42.857Z,100893.84
2022-10-16T06:28:44.857Z,100899.09
2022-10-16T06:30:46.941Z,100909.69
2022-10-16T06:32:50.956Z,100908.00
2022-10-16T06:34:52.856Z,100907.63
2022-10-16T06:36:54.755Z,100916.97
2022-10-16T06:38:56.871Z,100907.59
2022-10-16T06:40:59.375Z,100918.19
2022-10-16T06:43:01.217Z,100919.22
2022-10-16T06:45:03.279Z,100931.84
2022-10-16T06:47:05.124Z,100929.81
2022-10-16T06:49:08.038Z,100924.44
2022-10-16T06:51:19.179Z,100926.59
2022-10-16T06:53:20.985Z,100928.47
2022-10-16T06:55:22.952Z,100928.63
2022-10-16T06:57:24.862Z,100933.00
2022-10-16T06:59:26.919Z,100928.06
2022-10-16T07:01:29.677Z,100937.06
2022-10-16T07:03:31.720Z,100939.28
2022-10-16T07:05:38.146Z,100940.69
2022-10-16T07:07:40.967Z,100943.53
2022-10-16T07:09:42.885Z,100931.63
2022-10-16T07:11:44.895Z,100937.84
2022-10-16T07:13:51.047Z,100928.25
2022-10-16T07:15:57.639Z,100924.72
2022-10-16T07:17:59.445Z,100928.91
2022-10-16T07:20:03.097Z,100937.66
2022-10-16T07:22:06.096Z,100924.50
2022-10-16T07:24:12.869Z,100918.56
2022-10-16T07:26:16.756Z,100927.66
2022-10-16T07:28:18.945Z,100915.75
2022-10-16T07:30:22.424Z,100922.72
2022-10-16T07:32:27.140Z,100936.75
2022-10-16T07:34:38.455Z,100942.06
2022-10-16T07:38:55.639Z,100930.16
2022-10-16T07:41:07.197Z,100921.41
2022-10-16T07:43:16.441Z,100922.19
2022-10-16T07:45:21.578Z,100914.38
2022-10-16T07:47:25.211Z,100920.53
2022-10-16T07:49:28.408Z,100910.13
2022-10-16T07:51:30.935Z,100923.50
2022-10-16T07:53:35.044Z,100927.66
2022-10-16T07:55:44.446Z,100933.28
2022-10-16T07:57:46.393Z,100932.66
2022-10-16T07:59:48.419Z,100935.59
2022-10-16T08:01:52.840Z,100931.00
2022-10-16T08:03:56.266Z,100937.63
2022-10-16T08:06:01.506Z,100949.13
2022-10-16T08:08:04.774Z,100961.03
2022-10-16T08:10:18.418Z,100954.88
2022-10-16T08:12:20.453Z,100950.47
2022-10-16T08:14:24.506Z,100957.59
2022-10-16T08:16:26.393Z,100960.16
2022-10-16T08:18:28.342Z,100952.94
2022-10-16T08:20:33.840Z,100961.91
2022-10-16T08:22:35.852Z,100958.50
2022-10-16T08:24:38.201Z,100958.69
2022-10-16T08:26:45.931Z,100968.50
2022-10-16T08:28:51.889Z,100974.84
2022-10-16T08:30:53.944Z,100974.22
2022-10-16T08:32:59.292Z,100965.50
2022-10-16T08:35:02.245Z,100966.31
2022-10-16T08:37:04.081Z,100960.88
2022-10-16T08:39:06.241Z,100972.59
2022-10-16T08:41:37.440Z,100963.16
2022-10-16T08:44:06.429Z,100961.91
2022-10-16T08:46:38.145Z,100963.59
2022-10-16T08:49:00.164Z,100965.69
2022-10-16T08:51:07.174Z,100974.88
2022-10-16T08:53:18.993Z,100971.53
2022-10-16T08:55:39.638Z,100982.38
2022-10-16T08:57:41.564Z,100984.69
2022-10-16T08:59:43.507Z,100989.91
2022-10-16T09:01:51.053Z,100991.16
2022-10-16T09:04:38.921Z,100993.22
2022-10-16T09:07:04.423Z,100993.84
2022-10-16T09:09:28.857Z,100988.41
2022-10-16T09:11:48.989Z,100984.88
2022-10-16T09:13:59.887Z,100975.28
2022-10-16T09:16:10.967Z,100968.00
2022-10-16T09:18:32.890Z,100970.84
2022-10-16T09:20:43.976Z,100977.78
2022-10-16T09:22:47.269Z,100973.00
2022-10-16T09:24:49.555Z,100969.63
2022-10-16T09:26:51.766Z,100965.66
2022-10-16T09:28:54.792Z,100979.66
2022-10-16T09:30:58.048Z,100978.81
2022-10-16T09:33:00.564Z,100975.28
2022-10-16T09:35:04.723Z,100971.13
2022-10-16T09:37:13.631Z,100967.97
2022-10-16T09:39:16.614Z,100978.00
2022-10-16T09:41:22.174Z,100973.84
2022-10-16T09:43:43.062Z,100976.34
2022-10-16T09:46:05.768Z,100981.75
2022-10-16T09:48:13.638Z,100978.22
2022-10-16T09:50:30.083Z,100970.84
2022-10-16T09:52:32.355Z,100969.72
2022-10-16T09:54:34.812Z,100966.75
2022-10-16T09:56:40.322Z,100974.88
2022-10-16T09:58:52.149Z,100981.81
2022-10-16T10:00:57.076Z,100972.56
2022-10-16T10:02:59.057Z,100985.41
2022-10-16T10:05:01.720Z,100983.94
2022-10-16T10:07:05.806Z,100986.19
2022-10-16T10:09:49.676Z,100984.91
2022-10-16T10:11:57.906Z,100984.81
2022-10-16T10:14:16.549Z,100978.13
2022-10-16T10:16:28.740Z,100978.38
2022-10-16T10:18:33.093Z,100980.31
2022-10-16T10:20:39.819Z,100974.53
2022-10-16T10:22:46.970Z,100977.50
2022-10-16T10:25:01.900Z,100975.25
2022-10-16T10:27:17.988Z,100973.41
2022-10-16T10:29:26.975Z,100977.97
2022-10-16T10:31:45.995Z,100978.38
2022-10-16T10:34:10.308Z,100972.94
2022-10-16T10:36:30.301Z,100970.47
2022-10-16T10:38:36.619Z,100976.72
2022-10-16T10:40:52.358Z,100983.47
2022-10-16T10:43:25.877Z,100978.63
2022-10-16T10:45:37.541Z,100973.81
2022-10-16T10:47:58.114Z,100967.94
2022-10-16T10:50:24.664Z,100966.03
2022-10-16T10:52:36.404Z,100961.03
2022-10-16T10:55:00.770Z,100966.91
2022-10-16T10:57:19.884Z,100965.44
2022-10-16T10:59:50.157Z,100966.28
2022-10-16T11:02:03.022Z,100969.81
2022-10-16T11:04:18.021Z,100971.25
2022-10-16T11:06:25.849Z,100962.25
2022-10-16T11:08:37.323Z,100961.41
2022-10-16T11:10:53.440Z,100966.41
2022-10-16T11:13:27.988Z,100963.28
2022-10-16T11:15:34.485Z,100958.00
2022-10-16T11:17:49.301Z,100961.19
2022-10-16T11:19:56.121Z,100959.91
2022-10-16T11:22:21.293Z,100952.78
2022-10-16T11:25:00.949Z,100967.03
2022-10-16T11:27:09.148Z,100967.06
2022-10-16T11:29:23.225Z,100974.59
2022-10-16T11:31:39.730Z,100975.22
2022-10-16T11:33:50.863Z,100974.59
2022-10-16T11:36:02.844Z,100974.56
2022-10-16T11:38:17.886Z,100975.38
2022-10-16T11:40:32.514Z,100964.06
2022-10-16T11:42:49.868Z,100959.03
2022-10-16T11:45:11.481Z,100960.22
2022-10-16T11:49:44.861Z,100955.19
2022-10-16T11:54:27.931Z,100942.41
2022-10-16T11:56:33.744Z,100942.59
2022-10-16T11:59:09.192Z,100950.50
2022-10-16T12:01:11.124Z,100958.06
2022-10-16T12:03:26.293Z,100956.81
2022-10-16T12:05:48.557Z,100964.75
2022-10-16T12:08:14.389Z,100959.59
2022-10-16T12:10:28.879Z,100975.94
2022-10-16T12:12:41.568Z,100981.81
2022-10-16T12:15:11.369Z,100985.81
2022-10-16T12:17:27.781Z,100974.91
2022-10-16T12:19:31.749Z,100979.94
2022-10-16T12:21:34.675Z,100980.13
2022-10-16T12:23:48.491Z,100976.59
2022-10-16T12:25:57.092Z,100979.72
2022-10-16T12:28:03.415Z,100971.97
2022-10-16T12:30:07.747Z,100983.69
2022-10-16T12:32:53.248Z,100983.69
2022-10-16T12:34:58.195Z,100978.09
2022-10-16T12:37:16.161Z,100975.59
2022-10-16T12:39:26.331Z,100974.78
2022-10-16T12:41:37.093Z,100972.50
2022-10-16T12:43:43.598Z,100974.97
2022-10-16T12:45:46.795Z,100977.06
2022-10-16T12:47:52.571Z,100986.25
2022-10-16T12:49:56.036Z,100983.59
2022-10-16T12:52:01.183Z,100983.16
2022-10-16T12:54:26.083Z,100980.03
2022-10-16T12:57:09.268Z,100986.47
2022-10-16T12:59:26.568Z,100979.13
2022-10-16T13:01:38.272Z,100982.06
2022-10-16T13:04:18.431Z,100971.81
2022-10-16T13:06:52.034Z,100969.28
2022-10-16T13:09:06.374Z,100977.66
2022-10-16T13:11:21.580Z,100986.44
2022-10-16T13:13:37.482Z,100989.81
2022-10-16T13:15:53.414Z,100996.28
2022-10-16T13:18:14.383Z,100983.75
2022-10-16T13:20:37.856Z,100980.44
2022-10-16T13:23:23.438Z,100983.38
2022-10-16T13:25:32.786Z,100983.38
2022-10-16T13:27:55.830Z,100993.66
2022-10-16T13:30:30.831Z,100995.94
2022-10-16T13:32:33.098Z,100998.44
2022-10-16T13:34:45.155Z,101009.53
2022-10-16T13:36:52.832Z,101018.50
2022-10-16T13:39:19.086Z,101011.81
2022-10-16T13:41:22.007Z,101014.09
2022-10-16T13:43:50.262Z,101013.66
2022-10-16T13:45:57.612Z,101006.38
2022-10-16T13:48:07.089Z,101007.19
2022-10-16T13:50:20.154Z,101006.53
2022-10-16T13:52:23.409Z,100996.56
2022-10-16T13:54:29.920Z,100989.63
2022-10-16T13:56:34.243Z,100995.53
2022-10-16T13:58:36.262Z,101000.94
2022-10-16T14:02:45.527Z,100998.22
2022-10-16T14:04:49.034Z,100984.84
2022-10-16T14:06:52.881Z,100992.41
2022-10-16T14:09:05.945Z,100989.06
2022-10-16T14:11:08.158Z,101005.78
2022-10-16T14:13:21.831Z,100995.72
2022-10-16T14:15:24.922Z,101013.91
2022-10-16T14:17:34.397Z,101016.88
2022-10-16T14:19:37.537Z,101024.38
2022-10-16T14:21:41.950Z,101012.88
2022-10-16T14:23:44.607Z,101022.28
2022-10-16T14:25:46.802Z,101025.41
2022-10-16T14:28:16.242Z,101025.81
2022-10-16T14:30:23.367Z,101028.78
2022-10-16T14:32:26.196Z,101027.50
2022-10-16T14:34:38.060Z,101026.69
2022-10-16T14:36:42.464Z,101032.31
2022-10-16T14:38:55.786Z,101025.22
2022-10-16T14:41:00.290Z,101027.72
2022-10-16T14:43:05.104Z,101024.16
2022-10-16T14:45:11.916Z,101035.03
2022-10-16T14:47:23.552Z,101036.53
2022-10-16T14:49:25.818Z,101031.69
2022-10-16T14:51:28.078Z,101028.56
2022-10-16T14:53:30.078Z,101031.50
2022-10-16T14:55:34.038Z,101028.16
2022-10-16T14:57:39.599Z,101031.09
2022-10-16T14:59:45.665Z,101031.28
2022-10-16T15:01:49.205Z,101033.16
2022-10-16T15:03:53.957Z,101034.00
2022-10-16T15:05:55.905Z,101042.38
2022-10-16T15:07:58.872Z,101036.94
2022-10-16T15:10:00.862Z,101041.94
2022-10-16T15:12:02.959Z,101050.28
2022-10-16T15:14:05.257Z,101050.91
2022-10-16T15:16:13.207Z,101054.69
2022-10-16T15:18:21.600Z,101053.41
2022-10-16T15:20:34.875Z,101056.75
2022-10-16T15:22:36.960Z,101064.50
2022-10-16T15:24:39.095Z,101057.38
2022-10-16T15:26:42.456Z,101063.00
2022-10-16T15:28:44.441Z,101055.06
2022-10-16T15:30:47.606Z,101047.97
2022-10-16T15:32:51.601Z,101055.28
2022-10-16T15:34:55.596Z,101060.69
2022-10-16T15:36:59.273Z,101060.69
2022-10-16T15:39:01.861Z,101062.78
2022-10-16T15:41:03.918Z,101060.88
2022-10-16T15:43:05.836Z,101067.81
2022-10-16T15:45:08.139Z,101061.50
2022-10-16T15:47:10.324Z,101067.97
2022-10-16T15:49:12.992Z,101069.44
2022-10-16T15:51:15.595Z,101074.66
2022-10-16T15:53:17.632Z,101080.09
2022-10-16T15:55:21.580Z,101075.91
2022-10-16T15:57:24.933Z,101080.50
2022-10-16T15:59:26.898Z,101075.94
2022-10-16T16:01:34.660Z,101080.72
2022-10-16T16:03:37.554Z,101080.50
2022-10-16T16:05:46.335Z,101088.00
2022-10-16T16:07:51.221Z,101085.94
2022-10-16T16:09:53.677Z,101091.94
2022-10-16T16:11:56.820Z,101099.28
2022-10-16T16:13:58.771Z,101096.56
2022-10-16T16:16:01.098Z,101093.59
2022-10-16T16:20:12.308Z,101107.00
2022-10-16T16:22:15.639Z,101111.97
2022-10-16T16:24:18.671Z,101112.38
2022-10-16T16:26:28.745Z,101112.81
2022-10-16T16:28:35.186Z,101108.81
2022-10-16T16:30:37.809Z,101113.00
2022-10-16T16:32:39.898Z,101111.50
2022-10-16T16:34:43.048Z,101117.97
2022-10-16T16:36:48.275Z,101126.88
2022-10-16T16:38:54.968Z,101119.66
2022-10-16T16:41:01.694Z,101130.28
2022-10-16T16:43:05.408Z,101134.81
2022-10-16T16:45:16.162Z,101132.84
2022-10-16T16:47:18.768Z,101131.22
2022-10-16T16:49:20.838Z,101133.16
2022-10-16T16:51:23.217Z,101138.25
2022-10-16T16:53:26.053Z,101140.31
2022-10-16T16:55:28.098Z,101149.47
2022-10-16T16:57:31.052Z,101138.47
2022-10-16T16:59:36.107Z,101148.72
2022-10-16T17:01:38.533Z,101148.66
2022-10-16T17:03:47.473Z,101142.34
2022-10-16T17:06:08.394Z,101150.31
2022-10-16T17:08:12.886Z,101152.66
2022-10-16T17:10:15.396Z,101164.00
2022-10-16T17:12:18.313Z,101170.41
2022-10-16T17:14:20.773Z,101165.81
2022-10-16T17:16:28.746Z,101167.75
2022-10-16T17:18:31.245Z,101179.75
2022-10-16T17:20:37.573Z,101172.72
2022-10-16T17:22:40.171Z,101178.88
2022-10-16T17:24:42.613Z,101178.34
2022-10-16T17:26:49.548Z,101187.56
2022-10-16T17:28:54.148Z,101176.69
2022-10-16T17:30:56.577Z,101180.97
2022-10-16T17:33:00.613Z,101191.63
2022-10-16T17:35:03.157Z,101192.50
2022-10-16T17:37:05.593Z,101193.22
2022-10-16T17:39:13.581Z,101193.59
2022-10-16T17:41:17.727Z,101194.81
2022-10-16T17:43:21.054Z,101196.31
2022-10-16T17:45:27.418Z,101205.31
2022-10-16T17:47:30.301Z,101203.47
2022-10-16T17:49:32.866Z,101200.19
2022-10-16T17:51:37.152Z,101211.53
2022-10-16T17:53:39.690Z,101211.84
2022-10-16T17:55:46.127Z,101215.81
2022-10-16T17:57:49.252Z,101218.44
2022-10-16T17:59:51.889Z,101215.66
2022-10-16T18:01:54.562Z,101227.03
2022-10-16T18:04:00.141Z,101226.84
2022-10-16T18:06:07.330Z,101225.44
2022-10-16T18:08:11.911Z,101223.41
2022-10-16T18:10:17.512Z,101222.19
2022-10-16T18:12:22.570Z,101225.63
2022-10-16T18:14:26.518Z,101222.75
2022-10-16T18:16:32.217Z,101216.94
2022-10-16T18:18:34.677Z,101221.53
2022-10-16T18:20:37.045Z,101217.69
2022-10-16T18:22:39.481Z,101222.56
2022-10-16T18:24:41.866Z,101225.72
2022-10-16T18:26:44.257Z,101232.63
2022-10-16T18:28:51.192Z,101225.63
2022-10-16T18:31:06.839Z,101227.22
2022-10-16T18:33:09.300Z,101229.81
2022-10-16T18:37:20.543Z,101228.16
2022-10-16T18:39:24.278Z,101232.91
2022-10-16T18:41:28.033Z,101237.47
2022-10-16T18:43:31.718Z,101244.84
2022-10-16T18:45:34.231Z,101240.16
2022-10-16T18:47:36.829Z,101242.59
2022-10-16T18:49:40.366Z,101237.25
2022-10-16T18:51:43.625Z,101245.53
2022-10-16T18:53:51.152Z,101245.63
2022-10-16T18:55:54.117Z,101244.06
2022-10-16T18:57:56.939Z,101247.03
2022-10-16T18:59:59.371Z,101245.81
2022-10-16T19:02:01.946Z,101247.88
2022-10-16T19:04:07.741Z,101251.75
2022-10-16T19:06:12.600Z,101257.03
2022-10-16T19:08:15.911Z,101263.50
2022-10-16T19:10:18.587Z,101268.50
2022-10-16T19:12:22.319Z,101270.00
2022-10-16T19:14:25.807Z,101279.41
2022-10-16T19:16:34.096Z,101283.44
2022-10-16T19:18:39.560Z,101291.09
2022-10-16T19:20:42.636Z,101292.16
2022-10-16T19:22:59.632Z,101293.16
2022-10-16T19:25:04.535Z,101294.38
2022-10-16T19:27:07.771Z,101295.78
2022-10-16T19:29:11.325Z,101296.63
2022-10-16T19:31:19.550Z,101305.31
2022-10-16T19:33:32.018Z,101302.88
2022-10-16T19:35:34.926Z,101303.22
2022-10-16T19:37:37.448Z,101306.53
2022-10-16T19:39:40.178Z,101313.66
2022-10-16T19:41:43.080Z,101315.50
2022-10-16T19:43:49.283Z,101314.84
2022-10-16T19:46:04.627Z,101317.38
2022-10-16T19:48:06.808Z,101316.22
2022-10-16T19:50:16.963Z,101313.19
2022-10-16T19:52:25.441Z,101325.66
2022-10-16T19:54:29.710Z,101333.72
2022-10-16T19:56:33.697Z,101333.91
2022-10-16T19:58:37.848Z,101333.91
2022-10-16T20:00:46.804Z,101326.16
2022-10-16T20:02:49.092Z,101336.78
2022-10-16T20:04:52.306Z,101330.88
2022-10-16T20:09:01.212Z,101347.06
2022-10-16T20:11:04.152Z,101337.97
2022-10-16T20:13:08.398Z,101342.13
2022-10-16T20:15:10.831Z,101351.25
2022-10-16T20:17:14.199Z,101343.00
2022-10-16T20:19:16.551Z,101347.91
2022-10-16T20:21:24.728Z,101349.75
2022-10-16T20:23:26.809Z,101351.41
2022-10-16T20:25:28.675Z,101345.81
2022-10-16T20:27:31.644Z,101349.91
2022-10-16T20:29:33.584Z,101353.97
2022-10-16T20:31:36.959Z,101364.41
2022-10-16T20:33:38.932Z,101367.41
2022-10-16T20:35:47.004Z,101369.63
2022-10-16T20:37:51.016Z,101377.03
2022-10-16T20:39:53.233Z,101379.88
2022-10-16T20:41:55.176Z,101372.97
2022-10-16T20:43:57.471Z,101381.91
2022-10-16T20:46:05.619Z,101384.28
2022-10-16T20:48:08.710Z,101388.59
2022-10-16T20:50:10.809Z,101389.56
2022-10-16T20:52:12.730Z,101389.91
2022-10-16T20:54:14.666Z,101389.91
2022-10-16T20:56:17.630Z,101384.19
2022-10-16T20:58:20.023Z,101388.38
2022-10-16T21:00:23.036Z,101393.09
2022-10-16T21:02:25.216Z,101392.13
2022-10-16T21:04:33.409Z,101393.81
2022-10-16T21:06:38.194Z,101392.34
2022-10-16T21:08:42.402Z,101385.09
2022-10-16T21:10:44.270Z,101385.41
2022-10-16T21:12:46.102Z,101383.75
2022-10-16T21:15:13.027Z,101378.88
2022-10-16T21:17:12.405Z,101385.09
2022-10-16T21:19:14.317Z,101392.53
2022-10-16T21:21:25.084Z,101385.47
2022-10-16T21:23:27.327Z,101395.78
2022-10-16T21:25:30.059Z,101393.06
2022-10-16T21:27:40.323Z,101409.91
2022-10-16T21:29:42.388Z,101411.25
2022-10-16T21:31:44.314Z,101412.09
2022-10-16T21:33:47.376Z,101407.88
2022-10-16T21:35:49.279Z,101407.19
2022-10-16T21:37:51.147Z,101413.94
2022-10-16T21:39:56.584Z,101420.13
2022-10-16T21:41:58.563Z,101425.69
2022-10-16T21:44:02.387Z,101421.94
2022-10-16T21:46:04.453Z,101433.22
2022-10-16T21:48:06.509Z,101424.50
2022-10-16T21:50:10.027Z,101419.56
2022-10-16T21:52:12.346Z,101418.31
2022-10-16T21:54:20.146Z,101428.41
2022-10-16T21:56:23.421Z,101429.31
2022-10-16T21:58:25.370Z,101421.16
2022-10-16T22:00:27.332Z,101434.50
2022-10-16T22:02:30.281Z,101421.06
2022-10-16T22:04:32.237Z,101429.69
2022-10-16T22:07:30.413Z,101422.63
2022-10-16T22:09:32.463Z,101435.19
2022-10-16T22:11:37.320Z,101437.19
2022-10-16T22:13:40.150Z,101437.34
2022-10-16T22:15:51.229Z,101439.88
2022-10-16T22:17:53.169Z,101439.16
2022-10-16T22:19:55.055Z,101449.97
2022-10-16T22:21:57.481Z,101446.56
2022-10-16T22:24:00.610Z,101444.84
2022-10-16T22:26:06.739Z,101445.25
2022-10-16T22:28:09.326Z,101454.66
2022-10-16T22:30:12.363Z,101450.09
2022-10-16T22:32:15.327Z,101456.28
2022-10-16T22:34:18.253Z,101462.44
2022-10-16T22:36:20.164Z,101461.31
2022-10-16T22:38:23.126Z,101465.13
2022-10-16T22:40:24.995Z,101465.56
2022-10-16T22:42:26.846Z,101463.25
2022-10-16T22:44:29.132Z,101463.47
2022-10-16T22:46:31.869Z,101473.50
2022-10-16T22:48:34.564Z,101468.84
2022-10-16T22:50:36.389Z,101475.19
2022-10-16T22:52:40.341Z,101477.34
2022-10-16T22:54:42.204Z,101472.56
2022-10-16T22:56:51.100Z,101480.38
2022-10-16T22:58:53.993Z,101476.22
2022-10-16T23:00:55.888Z,101481.47
2022-10-16T23:02:57.815Z,101480.38
2022-10-16T23:05:00.724Z,101477.28
2022-10-16T23:07:02.562Z,101481.69
2022-10-16T23:09:05.550Z,101478.34
2022-10-16T23:11:09.433Z,101483.72
2022-10-16T23:13:12.331Z,101483.53
2022-10-16T23:15:14.335Z,101481.13
2022-10-16T23:17:16.190Z,101481.41
2022-10-16T23:19:18.123Z,101486.53
2022-10-16T23:21:22.970Z,101482.03
2022-10-16T23:23:24.926Z,101491.63
2022-10-16T23:25:27.860Z,101487.19
2022-10-16T23:27:30.771Z,101489.59
2022-10-16T23:29:32.716Z,101502.09
2022-10-16T23:31:34.687Z,101501.00
2022-10-16T23:33:37.763Z,101503.81
2022-10-16T23:35:40.924Z,101509.78
2022-10-16T23:37:42.757Z,101502.84
2022-10-16T23:39:44.639Z,101511.75
2022-10-16T23:41:46.515Z,101519.94
2022-10-16T23:43:48.715Z,101522.19
2022-10-16T23:45:50.603Z,101528.22
2022-10-16T23:47:52.484Z,101536.88
2022-10-16T23:49:54.326Z,101533.13
2022-10-16T23:51:56.224Z,101538.06
2022-10-16T23:53:58.101Z,101537.19
2022-10-16T23:56:00.245Z,101541.25
2022-10-16T23:58:02.223Z,101537.34
